地図

経路データ

SID SEASON NUMBER BASIN SUBBASIN NAME ISO_TIME NATURE LAT LON WMO_WIND WMO_PRES WMO_AGENCY TRACK_TYPE DIST2LAND LANDFALL IFLAG USA_AGENCY USA_ATCF_ID USA_LAT USA_LON USA_RECORD USA_STATUS USA_WIND USA_PRES USA_SSHS USA_R34_NE USA_R34_SE USA_R34_SW USA_R34_NW USA_R50_NE USA_R50_SE USA_R50_SW USA_R50_NW USA_R64_NE USA_R64_SE USA_R64_SW USA_R64_NW USA_POCI USA_ROCI USA_RMW USA_EYE TOKYO_LAT TOKYO_LON TOKYO_GRADE TOKYO_WIND TOKYO_PRES TOKYO_R50_DIR TOKYO_R50_LONG TOKYO_R50_SHORT TOKYO_R30_DIR TOKYO_R30_LONG TOKYO_R30_SHORT TOKYO_LAND CMA_LAT CMA_LON CMA_CAT CMA_WIND CMA_PRES HKO_LAT HKO_LON HKO_CAT HKO_WIND HKO_PRES NEWDELHI_LAT NEWDELHI_LON NEWDELHI_GRADE NEWDELHI_WIND NEWDELHI_PRES NEWDELHI_CI NEWDELHI_DP NEWDELHI_POCI REUNION_LAT REUNION_LON REUNION_TYPE REUNION_WIND REUNION_PRES REUNION_TNUM REUNION_CI REUNION_RMW REUNION_R34_NE REUNION_R34_SE REUNION_R34_SW REUNION_R34_NW REUNION_R50_NE REUNION_R50_SE REUNION_R50_SW REUNION_R50_NW REUNION_R64_NE REUNION_R64_SE REUNION_R64_SW REUNION_R64_NW BOM_LAT BOM_LON BOM_TYPE BOM_WIND BOM_PRES BOM_TNUM BOM_CI BOM_RMW BOM_R34_NE BOM_R34_SE BOM_R34_SW BOM_R34_NW BOM_R50_NE BOM_R50_SE BOM_R50_SW BOM_R50_NW BOM_R64_NE BOM_R64_SE BOM_R64_SW BOM_R64_NW BOM_ROCI BOM_POCI BOM_EYE BOM_POS_METHOD BOM_PRES_METHOD NADI_LAT NADI_LON NADI_CAT NADI_WIND NADI_PRES WELLINGTON_LAT WELLINGTON_LON WELLINGTON_WIND WELLINGTON_PRES DS824_LAT DS824_LON DS824_STAGE DS824_WIND DS824_PRES TD9636_LAT TD9636_LON TD9636_STAGE TD9636_WIND TD9636_PRES TD9635_LAT TD9635_LON TD9635_WIND TD9635_PRES TD9635_ROCI NEUMANN_LAT NEUMANN_LON NEUMANN_CLASS NEUMANN_WIND NEUMANN_PRES MLC_LAT MLC_LON MLC_CLASS MLC_WIND MLC_PRES USA_GUST BOM_GUST BOM_GUST_PER REUNION_GUST REUNION_GUST_PER USA_SEAHGT USA_SEARAD_NE USA_SEARAD_SE USA_SEARAD_SW USA_SEARAD_NW STORM_SPEED STORM_DIR
1912043S17054 1912 7 SI MM NOT_NAMED 1912-02-12 00:00:00 TS -17.4000 54.1000 main 421 376 _________O____ -1 -17.4000 54.1000 TC 25 9 162
1912043S17054 1912 7 SI MM NOT_NAMED 1912-02-12 03:00:00 TS -17.8425 54.2499 main 376 316 _________P____ -1 -17.8425 54.2499 TC 25 10 162
1912043S17054 1912 7 SI MM NOT_NAMED 1912-02-12 06:00:00 TS -18.3000 54.4000 main 316 270 _________O____ -1 -18.3000 54.4000 TC 25 10 163
1912043S17054 1912 7 SI MM NOT_NAMED 1912-02-12 09:00:00 TS -18.7725 54.5500 main 256 210 _________P____ -1 -18.7725 54.5500 TC 25 9 162
1912043S17054 1912 7 SI MM NOT_NAMED 1912-02-12 12:00:00 TS -19.2000 54.7000 main 210 175 _________O____ -1 -19.2000 54.7000 TC 25 8 159
1912043S17054 1912 7 SI MM NOT_NAMED 1912-02-12 15:00:00 TS -19.5225 54.8501 main 172 137 _________P____ -1 -19.5225 54.8501 TC 25 7 155
1912043S17054 1912 7 SI MM NOT_NAMED 1912-02-12 18:00:00 TS -19.8000 55.0000 main 137 102 _________O____ -1 -19.8000 55.0000 TC 25 6 154
1912043S17054 1912 7 SI MM NOT_NAMED 1912-02-12 21:00:00 TS -20.0850 55.1427 main 102 67 _________P____ -1 -20.0850 55.1427 TC 25 7 155
1912043S17054 1912 7 SI MM NOT_NAMED 1912-02-13 00:00:00 TS -20.4000 55.3000 main 67 22 _________O____ -1 -20.4000 55.3000 TC 25 8 155
1912043S17054 1912 7 SI MM NOT_NAMED 1912-02-13 03:00:00 TS -20.7850 55.4851 main 22 0 _________P____ -1 -20.7850 55.4851 TC 25 9 155
1912043S17054 1912 7 SI MM NOT_NAMED 1912-02-13 06:00:00 TS -21.2000 55.7000 main 0 0 _________O____ -1 -21.2000 55.7000 TC 25 9 152
1912043S17054 1912 7 SI MM NOT_NAMED 1912-02-13 09:00:00 TS -21.6075 55.9500 main 35 35 _________P____ -1 -21.6075 55.9500 TC 25 9 150
1912043S17054 1912 7 SI MM NOT_NAMED 1912-02-13 12:00:00 TS -22.0000 56.2000 main 88 88 _________O____ -1 -22.0000 56.2000 TC 25 9 151
1912043S17054 1912 7 SI MM NOT_NAMED 1912-02-13 15:00:00 TS -22.3649 56.4077 main 137 137 _________P____ -1 -22.3649 56.4077 TC 25 8 152
1912043S17054 1912 7 SI MM NOT_NAMED 1912-02-13 18:00:00 TS -22.7000 56.6000 main 176 176 _________O____ -1 -22.7000 56.6000 TC 25 7 152
1912043S17054 1912 7 SI MM NOT_NAMED 1912-02-13 21:00:00 TS -22.9848 56.7631 main 216 216 _________P____ -1 -22.9848 56.7631 TC 25 7 148
1912043S17054 1912 7 SI MM NOT_NAMED 1912-02-14 00:00:00 TS -23.3000 57.0000 main 255 255 _________O____ -1 -23.3000 57.0000 TC 25 10 142
1912043S17054 1912 7 SI MM NOT_NAMED 1912-02-14 03:00:00 TS -23.7351 57.4048 main 314 314 _________P____ -1 -23.7351 57.4048 TC 25 12 138
1912043S17054 1912 7 SI MM NOT_NAMED 1912-02-14 06:00:00 TS -24.2000 57.9000 main 389 389 _________O____ -1 -24.2000 57.9000 TC 25 13 134
1912043S17054 1912 7 SI MM NOT_NAMED 1912-02-14 09:00:00 TS -24.6300 58.4074 main 454 454 _________P____ -1 -24.6300 58.4074 TC 25 12 131
1912043S17054 1912 7 SI MM NOT_NAMED 1912-02-14 12:00:00 TS -25.0000 58.9000 main 517 517 _________O____ -1 -25.0000 58.9000 TC 25 10 128
1912043S17054 1912 7 SI MM NOT_NAMED 1912-02-14 15:00:00 TS -25.2723 59.3155 main 560 560 _________P____ -1 -25.2723 59.3155 TC 25 9 125
1912043S17054 1912 7 SI MM NOT_NAMED 1912-02-14 18:00:00 TS -25.5000 59.7000 main 595 595 _________O____ -1 -25.5000 59.7000 TC 25 8 124
1912043S17054 1912 7 SI MM NOT_NAMED 1912-02-14 21:00:00 TS -25.7428 60.0945 main 630 630 _________P____ -1 -25.7428 60.0945 TC 25 9 125
1912043S17054 1912 7 SI MM NOT_NAMED 1912-02-15 00:00:00 TS -26.0000 60.5000 main 677 _________O____ -1 -26.0000 60.5000 TC 25 9 125

IBTrACS Databaseについて

本データベースは、米国NOAAが公開する1842年以降の世界の熱帯低気圧のベストトラックデータアーカイブInternational Best Track Archive for Climate Stewardship (IBTrACS)を、ウェブで閲覧しやすい形式に変換したものです。

最終更新日:2021-10-19